Time;durP1;ratioP1;P1;durP2;ratioP2;P2;SDS_P1;SDS_P2;PMS_P1;PMS_P2;Temp;Humidity;BMP_temperature;BMP_pressure;BME280_temperature;BME280_humidity;BME280_pressure;Samples;Min_cycle;Max_cycle;Signal;HPM_P1;HPM_P2
2023/08/12 00:00:57;;;;;;;7.05;2.78;;;19.30;99.90;;;;;;5020928;28;20107;-83
2023/08/12 00:03:22;;;;;;;3.67;2.40;;;19.30;99.90;;;;;;5029913;28;20384;-83
2023/08/12 00:05:48;;;;;;;3.33;2.50;;;19.30;99.90;;;;;;5020718;28;20508;-83
2023/08/12 00:08:14;;;;;;;4.63;2.72;;;19.30;99.90;;;;;;5021961;28;20030;-84
2023/08/12 00:10:39;;;;;;;5.05;2.75;;;19.30;99.90;;;;;;5026523;28;20021;-83
2023/08/12 00:13:05;;;;;;;6.68;2.47;;;19.30;99.90;;;;;;5009915;28;20068;-84
2023/08/12 00:15:30;;;;;;;2.75;2.50;;;19.30;99.90;;;;;;5013284;28;20030;-84
2023/08/12 00:17:56;;;;;;;3.20;2.90;;;19.30;99.90;;;;;;5025347;28;20088;-82
2023/08/12 00:20:21;;;;;;;3.10;2.90;;;19.30;99.90;;;;;;5029025;28;20022;-83
2023/08/12 00:22:47;;;;;;;2.78;2.58;;;19.20;99.90;;;;;;5018583;28;20021;-83
2023/08/12 00:25:12;;;;;;;4.22;2.63;;;19.20;99.90;;;;;;5022943;28;20030;-82
2023/08/12 00:27:38;;;;;;;3.58;2.55;;;19.20;99.90;;;;;;5029235;28;20040;-82
2023/08/12 00:30:05;;;;;;;4.35;2.90;;;19.20;99.90;;;;;;5022836;28;20049;-84
2023/08/12 00:32:30;;;;;;;3.28;2.92;;;19.20;99.90;;;;;;5040753;28;20033;-83
2023/08/12 00:34:56;;;;;;;4.57;2.65;;;19.20;99.90;;;;;;5033056;28;20149;-83
2023/08/12 00:37:23;;;;;;;3.40;2.92;;;19.20;99.90;;;;;;5034941;28;20060;-85
2023/08/12 00:39:48;;;;;;;3.97;3.00;;;19.20;99.90;;;;;;5027995;28;20060;-83
2023/08/12 00:42:14;;;;;;;3.30;2.50;;;19.20;99.90;;;;;;5023612;28;20373;-84
2023/08/12 00:44:39;;;;;;;4.45;2.58;;;19.20;99.90;;;;;;5029821;28;20049;-84
2023/08/12 00:47:05;;;;;;;3.42;2.72;;;19.20;99.90;;;;;;5023410;28;20026;-84
2023/08/12 00:49:32;;;;;;;3.13;2.88;;;19.10;99.90;;;;;;5030950;28;20026;-85
2023/08/12 00:51:58;;;;;;;3.45;2.83;;;19.10;99.90;;;;;;5020590;28;20033;-84
2023/08/12 00:54:26;;;;;;;3.00;2.70;;;19.10;99.90;;;;;;5022224;28;20104;-84
2023/08/12 00:56:53;;;;;;;2.95;2.70;;;19.10;99.90;;;;;;5008828;28;20480;-83
2023/08/12 00:59:19;;;;;;;2.80;2.60;;;19.10;99.90;;;;;;5022959;28;20030;-83
2023/08/12 01:01:47;;;;;;;2.65;2.45;;;19.10;99.90;;;;;;5022493;28;20523;-83
2023/08/12 01:04:13;;;;;;;3.25;2.10;;;19.00;99.90;;;;;;5024654;28;20022;-84
2023/08/12 01:06:38;;;;;;;3.13;2.78;;;19.00;99.90;;;;;;5023866;28;20034;-83
2023/08/12 01:09:05;;;;;;;4.70;2.60;;;19.00;99.90;;;;;;5026360;28;20590;-84
2023/08/12 01:11:49;;;;;;;2.28;2.08;;;19.00;99.90;;;;;;5021418;28;20018;-83
2023/08/12 01:14:27;;;;;;;3.15;2.60;;;19.00;99.90;;;;;;5026500;28;20021;-84
2023/08/12 01:16:58;;;;;;;5.47;2.63;;;18.90;99.90;;;;;;5015843;28;20044;-85
2023/08/12 01:19:34;;;;;;;3.80;2.53;;;19.00;99.90;;;;;;5024832;28;20018;-83
2023/08/12 01:22:01;;;;;;;2.97;2.63;;;19.00;99.90;;;;;;5016876;28;20025;-84
2023/08/12 01:24:34;;;;;;;4.50;3.20;;;18.90;99.90;;;;;;5024087;28;20036;-84
2023/08/12 01:26:59;;;;;;;2.67;2.47;;;19.00;99.90;;;;;;5024752;28;20112;-83
2023/08/12 01:29:25;;;;;;;2.90;2.70;;;18.90;99.90;;;;;;5024277;28;20080;-83
2023/08/12 01:32:08;;;;;;;3.85;2.85;;;18.90;99.90;;;;;;5017573;28;20029;-84
2023/08/12 01:34:46;;;;;;;2.80;2.58;;;18.90;99.90;;;;;;5022942;28;20057;-82
2023/08/12 01:37:17;;;;;;;2.65;2.45;;;18.80;99.90;;;;;;5022212;28;20559;-84
2023/08/12 01:39:45;;;;;;;6.53;2.72;;;18.80;99.90;;;;;;5022388;28;20025;-84
2023/08/12 01:42:11;;;;;;;2.92;2.72;;;18.80;99.90;;;;;;5021754;28;20068;-83
2023/08/12 01:44:37;;;;;;;2.40;2.20;;;18.70;99.90;;;;;;5026717;28;20017;-83
2023/08/12 01:47:02;;;;;;;2.40;2.20;;;18.70;99.90;;;;;;5020574;28;20037;-84
2023/08/12 01:49:28;;;;;;;2.97;2.53;;;18.70;99.90;;;;;;5028587;28;20120;-84
2023/08/12 01:51:53;;;;;;;2.95;2.53;;;18.70;99.90;;;;;;5016722;28;20117;-84
2023/08/12 01:54:19;;;;;;;3.00;2.72;;;18.60;99.90;;;;;;5021182;28;20025;-82
2023/08/12 01:56:45;;;;;;;2.67;2.47;;;18.70;99.90;;;;;;5020150;28;20792;-83
2023/08/12 01:59:11;;;;;;;3.25;2.83;;;18.60;99.90;;;;;;5021604;28;20743;-82
2023/08/12 02:01:36;;;;;;;2.90;2.58;;;18.60;99.90;;;;;;5019696;28;20607;-83
2023/08/12 02:04:02;;;;;;;3.42;2.45;;;18.60;99.90;;;;;;5024537;28;20080;-82
2023/08/12 02:06:27;;;;;;;4.43;2.92;;;18.60;99.90;;;;;;5021691;28;20026;-82
2023/08/12 02:08:53;;;;;;;2.80;2.60;;;18.60;99.90;;;;;;5022066;28;20048;-82
2023/08/12 02:11:18;;;;;;;2.88;2.50;;;18.50;99.90;;;;;;5018995;28;20017;-82
2023/08/12 02:13:44;;;;;;;3.58;2.50;;;18.50;99.90;;;;;;5022364;28;20040;-83
2023/08/12 02:16:09;;;;;;;3.17;2.63;;;18.50;99.90;;;;;;5022363;28;20034;-83
2023/08/12 02:18:35;;;;;;;3.20;2.55;;;18.50;99.90;;;;;;5019737;28;20105;-82
2023/08/12 02:21:01;;;;;;;3.00;2.72;;;18.50;99.90;;;;;;5024908;28;20018;-82
2023/08/12 02:23:26;;;;;;;4.10;2.47;;;18.50;99.90;;;;;;5018542;28;20102;-82
2023/08/12 02:25:54;;;;;;;4.55;2.83;;;18.50;99.90;;;;;;5021135;28;20021;-81
2023/08/12 02:28:19;;;;;;;2.65;2.42;;;18.50;99.90;;;;;;5020455;28;20527;-82
2023/08/12 02:30:45;;;;;;;2.88;2.60;;;18.40;99.90;;;;;;5015314;28;20030;-83
2023/08/12 02:33:10;;;;;;;4.35;2.70;;;18.40;99.90;;;;;;5023394;28;20026;-81
2023/08/12 02:35:36;;;;;;;3.05;2.75;;;18.40;99.90;;;;;;5017037;28;20088;-83
2023/08/12 02:38:02;;;;;;;4.03;2.40;;;18.40;99.90;;;;;;5021578;28;20041;-82
2023/08/12 02:40:27;;;;;;;3.22;2.50;;;18.40;99.90;;;;;;5017561;28;20414;-81
2023/08/12 02:42:53;;;;;;;3.60;2.70;;;18.30;99.90;;;;;;5021186;28;20033;-83
2023/08/12 02:45:18;;;;;;;2.80;2.60;;;18.30;99.90;;;;;;5019230;28;20025;-82
2023/08/12 02:47:44;;;;;;;2.70;2.50;;;18.30;99.90;;;;;;5020219;28;20026;-81
2023/08/12 02:50:09;;;;;;;4.43;2.97;;;18.30;99.90;;;;;;5021594;28;20033;-82
2023/08/12 02:52:35;;;;;;;3.55;2.45;;;18.30;99.90;;;;;;5012679;28;20022;-83
2023/08/12 02:55:01;;;;;;;3.22;2.97;;;18.30;99.90;;;;;;5008224;28;20430;-82
2023/08/12 02:57:26;;;;;;;3.40;2.95;;;18.20;99.90;;;;;;5019339;28;20080;-83
2023/08/12 02:59:52;;;;;;;4.50;2.88;;;18.20;99.90;;;;;;5024707;28;20044;-82
2023/08/12 03:02:18;;;;;;;2.97;2.67;;;18.20;99.90;;;;;;5020688;28;20416;-81
2023/08/12 03:04:43;;;;;;;3.38;3.08;;;18.20;99.90;;;;;;5016777;28;20021;-83
2023/08/12 03:07:09;;;;;;;3.42;3.13;;;18.20;99.90;;;;;;5014223;28;20060;-82
2023/08/12 03:09:35;;;;;;;3.20;2.90;;;18.10;99.90;;;;;;5014011;28;20121;-83
2023/08/12 03:12:02;;;;;;;3.03;2.80;;;18.10;99.90;;;;;;5021347;28;20033;-83
2023/08/12 03:14:29;;;;;;;4.18;3.05;;;18.10;99.90;;;;;;5019660;28;20032;-83
2023/08/12 03:16:55;;;;;;;3.60;2.67;;;18.10;99.90;;;;;;5021689;28;20037;-83
2023/08/12 03:19:21;;;;;;;3.30;2.67;;;18.10;99.90;;;;;;5018759;28;20017;-83
2023/08/12 03:21:46;;;;;;;3.17;2.90;;;18.10;99.90;;;;;;5028075;28;20112;-83
2023/08/12 03:24:12;;;;;;;3.42;3.10;;;18.10;99.90;;;;;;5020721;28;20477;-82
2023/08/12 03:26:37;;;;;;;4.20;2.63;;;18.10;99.90;;;;;;5029060;28;20112;-83
2023/08/12 03:29:03;;;;;;;2.92;2.67;;;18.10;99.90;;;;;;5021295;28;20079;-82
2023/08/12 03:31:28;;;;;;;3.20;2.53;;;18.10;99.90;;;;;;5020851;28;20034;-82
2023/08/12 03:33:54;;;;;;;4.32;3.00;;;18.10;99.90;;;;;;5020469;28;20028;-82
2023/08/12 03:36:20;;;;;;;2.78;2.58;;;18.10;99.90;;;;;;5018126;28;20033;-83
2023/08/12 03:38:45;;;;;;;2.88;2.67;;;18.10;99.90;;;;;;5029105;28;20053;-84
2023/08/12 03:41:11;;;;;;;2.90;2.55;;;18.10;99.90;;;;;;5020778;28;20141;-82
2023/08/12 03:43:37;;;;;;;3.22;2.80;;;18.10;99.90;;;;;;5022667;28;20029;-83
2023/08/12 03:46:03;;;;;;;2.70;2.50;;;18.00;99.90;;;;;;5024306;28;20026;-83
2023/08/12 03:48:28;;;;;;;3.05;2.30;;;18.00;99.90;;;;;;5022944;28;20036;-81
2023/08/12 03:50:54;;;;;;;4.72;2.65;;;18.00;99.90;;;;;;5027437;28;20018;-81
2023/08/12 03:53:19;;;;;;;3.30;2.95;;;18.00;99.90;;;;;;5017146;28;20026;-83
2023/08/12 03:55:45;;;;;;;4.28;3.50;;;18.00;99.90;;;;;;5026307;28;20068;-83
2023/08/12 03:58:10;;;;;;;4.90;3.30;;;18.00;99.90;;;;;;5020710;28;20030;-82
2023/08/12 04:00:42;;;;;;;4.47;3.53;;;17.90;99.90;;;;;;5021655;28;20033;-82
2023/08/12 04:03:08;;;;;;;3.10;2.90;;;17.90;99.90;;;;;;5023227;28;20026;-82
2023/08/12 04:05:34;;;;;;;3.28;2.97;;;17.90;99.90;;;;;;5020275;28;20132;-83
2023/08/12 04:07:59;;;;;;;3.72;3.42;;;17.90;99.90;;;;;;5024309;28;20497;-81
2023/08/12 04:10:25;;;;;;;3.83;2.88;;;17.80;99.90;;;;;;5016742;28;20033;-82
2023/08/12 04:12:50;;;;;;;3.15;2.65;;;17.80;99.90;;;;;;5026519;28;20013;-82
2023/08/12 04:15:16;;;;;;;2.95;2.75;;;17.80;99.90;;;;;;5020207;28;20392;-81
2023/08/12 04:17:42;;;;;;;2.90;2.70;;;17.80;99.90;;;;;;5015902;28;20404;-82
2023/08/12 04:20:08;;;;;;;3.70;3.10;;;17.80;99.90;;;;;;5023565;28;20108;-82
2023/08/12 04:22:34;;;;;;;3.60;3.30;;;17.80;99.90;;;;;;5020631;28;20022;-82
2023/08/12 04:25:00;;;;;;;2.75;2.55;;;17.80;99.90;;;;;;5025147;28;20032;-82
2023/08/12 04:27:25;;;;;;;2.95;2.75;;;17.80;99.90;;;;;;5019338;28;20026;-83
2023/08/12 04:29:51;;;;;;;3.03;2.83;;;17.80;99.90;;;;;;5022442;28;20029;-82
2023/08/12 04:32:16;;;;;;;4.65;3.85;;;17.80;99.90;;;;;;5018087;28;20148;-82
2023/08/12 04:34:42;;;;;;;3.13;2.92;;;17.80;99.90;;;;;;5020648;28;20030;-82
2023/08/12 04:37:07;;;;;;;3.05;2.78;;;17.70;99.90;;;;;;5023161;28;20036;-82
2023/08/12 04:39:33;;;;;;;3.13;2.83;;;17.70;99.90;;;;;;5020594;28;20018;-83
2023/08/12 04:41:58;;;;;;;3.85;2.78;;;17.70;99.90;;;;;;5026116;28;20026;-83
2023/08/12 04:44:24;;;;;;;3.20;2.90;;;17.80;99.90;;;;;;5022202;28;20105;-82
2023/08/12 04:46:50;;;;;;;3.00;2.70;;;17.80;99.90;;;;;;5039780;28;20127;-81
2023/08/12 04:49:15;;;;;;;3.65;3.15;;;17.80;99.90;;;;;;5044485;28;20045;-82
2023/08/12 04:51:41;;;;;;;3.65;2.97;;;17.80;99.90;;;;;;5035302;28;20503;-84
2023/08/12 04:54:07;;;;;;;3.72;2.50;;;17.80;99.90;;;;;;5031724;28;20762;-84
2023/08/12 04:56:33;;;;;;;2.95;2.75;;;17.80;99.90;;;;;;5015810;28;20026;-83
2023/08/12 04:58:59;;;;;;;3.35;3.15;;;17.90;99.90;;;;;;5021445;28;20650;-83
2023/08/12 05:01:24;;;;;;;3.17;2.97;;;17.90;99.90;;;;;;5021526;28;20038;-83
2023/08/12 05:03:50;;;;;;;3.00;2.80;;;17.90;99.90;;;;;;5016844;28;20072;-83
2023/08/12 05:06:15;;;;;;;3.30;2.92;;;17.90;99.90;;;;;;5023301;28;20025;-83
2023/08/12 05:08:41;;;;;;;3.47;2.92;;;17.90;99.90;;;;;;5023847;28;20392;-83
2023/08/12 05:11:07;;;;;;;3.65;3.28;;;17.90;99.90;;;;;;5024869;28;20022;-83
2023/08/12 05:13:33;;;;;;;3.25;2.95;;;17.90;99.90;;;;;;5015580;28;20117;-83
2023/08/12 05:15:59;;;;;;;3.22;2.92;;;17.90;99.90;;;;;;5023030;28;20075;-83
2023/08/12 05:18:24;;;;;;;3.70;3.30;;;17.90;99.90;;;;;;5019914;28;20132;-83
2023/08/12 05:20:51;;;;;;;2.80;2.60;;;17.90;99.90;;;;;;5023379;28;20017;-83
2023/08/12 05:23:17;;;;;;;3.00;2.70;;;18.00;99.90;;;;;;5023719;28;20026;-83
2023/08/12 05:25:43;;;;;;;3.67;3.00;;;18.00;99.90;;;;;;5023488;28;20021;-84
2023/08/12 05:28:08;;;;;;;2.67;2.47;;;18.00;99.90;;;;;;5024772;28;20039;-84
2023/08/12 05:30:34;;;;;;;2.95;2.60;;;18.00;99.90;;;;;;5014127;28;20048;-84
2023/08/12 05:33:00;;;;;;;3.25;2.95;;;18.00;99.90;;;;;;5022862;28;20048;-84
2023/08/12 05:35:26;;;;;;;3.67;2.88;;;18.00;99.90;;;;;;5021363;28;20036;-82
2023/08/12 05:37:51;;;;;;;3.42;3.17;;;18.00;99.90;;;;;;5023199;28;20029;-84
2023/08/12 05:40:17;;;;;;;3.60;3.15;;;18.10;99.90;;;;;;5024818;28;20022;-85
2023/08/12 05:42:42;;;;;;;3.17;2.88;;;18.10;99.90;;;;;;5028774;28;20045;-83
2023/08/12 05:45:11;;;;;;;3.28;3.00;;;18.00;99.90;;;;;;5032660;28;20033;-83
2023/08/12 05:47:36;;;;;;;3.78;3.47;;;18.00;99.90;;;;;;5014388;28;20061;-83
2023/08/12 05:50:02;;;;;;;3.08;2.78;;;18.00;99.90;;;;;;5035325;28;20036;-82
2023/08/12 05:52:28;;;;;;;3.25;2.95;;;18.00;99.90;;;;;;5031731;28;20018;-82
2023/08/12 05:54:53;;;;;;;3.20;2.90;;;18.00;99.90;;;;;;5030922;28;20097;-81
2023/08/12 05:57:19;;;;;;;3.22;2.90;;;18.10;99.90;;;;;;5031500;28;20039;-82
2023/08/12 05:59:44;;;;;;;3.25;2.97;;;18.10;99.90;;;;;;5030408;28;20330;-81
2023/08/12 06:02:10;;;;;;;3.50;3.20;;;18.10;99.90;;;;;;5027402;28;20026;-82
2023/08/12 06:04:35;;;;;;;6.43;3.70;;;18.10;99.90;;;;;;5021161;28;20022;-82
2023/08/12 06:07:01;;;;;;;3.33;3.03;;;18.10;99.90;;;;;;5025053;28;20026;-81
2023/08/12 06:09:26;;;;;;;5.13;4.00;;;18.10;99.90;;;;;;5020523;28;20025;-81
2023/08/12 06:11:52;;;;;;;4.45;4.05;;;18.20;99.90;;;;;;5020423;28;20053;-82
2023/08/12 06:14:17;;;;;;;3.95;3.60;;;18.20;99.90;;;;;;5022015;28;20064;-81
2023/08/12 06:16:43;;;;;;;3.50;3.20;;;18.20;99.90;;;;;;5021038;28;20022;-81
2023/08/12 06:19:09;;;;;;;3.78;3.47;;;18.20;99.90;;;;;;5023570;28;20087;-82
2023/08/12 06:21:34;;;;;;;3.38;3.08;;;18.20;99.90;;;;;;5022817;28;20013;-82
2023/08/12 06:24:00;;;;;;;4.78;3.65;;;18.20;99.90;;;;;;5023296;28;20083;-81
2023/08/12 06:26:25;;;;;;;4.80;4.10;;;18.20;99.90;;;;;;5020572;28;20026;-82
2023/08/12 06:28:51;;;;;;;3.65;3.30;;;18.20;99.90;;;;;;5018255;28;20429;-82
2023/08/12 06:31:16;;;;;;;4.18;3.67;;;18.20;99.90;;;;;;5021886;28;20037;-82
2023/08/12 06:33:42;;;;;;;3.55;3.25;;;18.10;99.90;;;;;;5013275;28;20022;-81
2023/08/12 06:36:07;;;;;;;4.45;3.90;;;18.20;99.90;;;;;;5021912;28;20029;-82
2023/08/12 06:38:33;;;;;;;4.03;3.72;;;18.20;99.90;;;;;;5019363;28;20042;-82
2023/08/12 06:40:58;;;;;;;6.13;3.90;;;18.10;99.90;;;;;;5021355;28;20619;-82
2023/08/12 06:43:24;;;;;;;5.53;3.60;;;18.10;99.90;;;;;;5020474;28;20032;-82
2023/08/12 06:45:49;;;;;;;7.60;4.30;;;18.10;99.90;;;;;;5014580;28;20106;-82
2023/08/12 06:48:15;;;;;;;8.75;5.25;;;18.20;99.90;;;;;;5021692;28;20052;-82
2023/08/12 06:50:40;;;;;;;5.50;4.95;;;18.10;99.90;;;;;;5018799;28;20432;-82
2023/08/12 06:53:07;;;;;;;5.25;4.75;;;18.10;99.90;;;;;;5022868;28;20108;-82
2023/08/12 06:55:32;;;;;;;6.25;5.65;;;18.10;99.90;;;;;;5017721;28;20035;-82
2023/08/12 06:57:58;;;;;;;4.35;3.95;;;18.20;99.90;;;;;;5023359;28;20025;-82
2023/08/12 07:00:23;;;;;;;4.50;4.10;;;18.10;99.90;;;;;;5022463;28;20385;-82
2023/08/12 07:02:49;;;;;;;6.45;5.10;;;18.10;99.90;;;;;;5019089;28;20026;-82
2023/08/12 07:05:14;;;;;;;6.25;5.65;;;18.10;99.90;;;;;;5021454;28;20029;-81
2023/08/12 07:07:40;;;;;;;7.07;6.38;;;18.10;99.90;;;;;;5022866;28;20029;-82
2023/08/12 07:10:06;;;;;;;8.50;5.55;;;18.20;99.90;;;;;;5020803;28;20087;-82
2023/08/12 07:12:32;;;;;;;6.10;4.82;;;18.20;99.90;;;;;;5020723;28;20029;-82
2023/08/12 07:14:58;;;;;;;7.53;6.55;;;18.20;99.90;;;;;;5020338;28;20025;-82
2023/08/12 07:17:23;;;;;;;6.70;5.20;;;18.30;99.90;;;;;;5019812;28;20026;-82
2023/08/12 07:19:49;;;;;;;6.38;5.53;;;18.30;99.90;;;;;;5024551;28;20021;-82
2023/08/12 07:22:19;;;;;;;7.05;5.97;;;18.30;99.90;;;;;;5017638;28;20018;-82
2023/08/12 07:24:45;;;;;;;7.85;7.13;;;18.40;99.90;;;;;;5024332;28;20420;-82
2023/08/12 07:27:10;;;;;;;6.80;6.20;;;18.50;99.90;;;;;;5017755;28;20085;-82
2023/08/12 07:29:36;;;;;;;7.90;7.20;;;18.50;99.90;;;;;;5018520;28;20018;-83
2023/08/12 07:32:01;;;;;;;7.93;7.15;;;18.70;99.90;;;;;;5021300;28;20109;-82
2023/08/12 07:34:27;;;;;;;9.55;8.50;;;18.80;99.90;;;;;;5017295;28;20057;-83
2023/08/12 07:36:52;;;;;;;7.75;7.05;;;18.90;99.90;;;;;;5023587;28;20026;-82
2023/08/12 07:39:18;;;;;;;8.20;7.40;;;18.90;99.90;;;;;;5016773;28;20025;-82
2023/08/12 07:41:44;;;;;;;8.77;7.95;;;19.00;99.90;;;;;;5017017;28;20089;-83
2023/08/12 07:44:09;;;;;;;9.85;8.27;;;19.10;99.90;;;;;;5016418;28;20105;-83
2023/08/12 07:46:35;;;;;;;11.68;7.75;;;19.20;99.90;;;;;;5016716;28;20109;-82
2023/08/12 07:49:00;;;;;;;8.10;7.40;;;19.30;99.90;;;;;;5013739;28;20096;-82
2023/08/12 07:51:26;;;;;;;7.60;6.95;;;19.40;99.90;;;;;;5021739;28;20033;-83
2023/08/12 07:53:51;;;;;;;8.10;6.93;;;19.50;99.90;;;;;;5020932;28;20029;-83
2023/08/12 07:56:17;;;;;;;9.90;6.30;;;19.60;99.90;;;;;;5018256;28;20022;-83
2023/08/12 07:58:42;;;;;;;8.05;7.25;;;19.70;99.90;;;;;;5022903;28;20060;-84
2023/08/12 08:01:09;;;;;;;7.90;6.70;;;19.80;99.90;;;;;;5019826;28;20038;-83
2023/08/12 08:03:34;;;;;;;8.93;6.85;;;19.90;99.90;;;;;;5018113;28;20044;-84
2023/08/12 08:06:00;;;;;;;10.07;7.10;;;20.00;99.90;;;;;;5025135;28;20512;-84
2023/08/12 08:08:26;;;;;;;8.20;6.80;;;20.10;99.90;;;;;;5019473;28;20069;-84
2023/08/12 08:10:51;;;;;;;8.23;7.28;;;20.20;99.90;;;;;;5016969;28;20028;-85
2023/08/12 08:13:17;;;;;;;6.07;5.47;;;20.30;99.90;;;;;;5021557;28;20044;-84
2023/08/12 08:15:42;;;;;;;9.07;7.30;;;20.40;99.90;;;;;;5022911;28;20026;-84
2023/08/12 08:18:08;;;;;;;8.98;6.45;;;20.40;99.90;;;;;;5024588;28;20033;-83
2023/08/12 08:20:33;;;;;;;7.90;6.43;;;20.50;99.90;;;;;;5022982;28;20033;-84
2023/08/12 08:22:59;;;;;;;6.70;5.40;;;20.50;99.90;;;;;;5025351;28;20496;-84
2023/08/12 08:25:25;;;;;;;5.75;5.20;;;20.60;99.90;;;;;;5023138;28;20381;-84
2023/08/12 08:27:50;;;;;;;8.73;7.75;;;20.70;99.90;;;;;;5018744;28;20044;-85
2023/08/12 08:30:16;;;;;;;7.35;6.55;;;20.80;99.90;;;;;;5022162;28;20037;-84
2023/08/12 08:32:42;;;;;;;7.20;6.20;;;20.80;99.90;;;;;;5018475;28;20463;-85
2023/08/12 08:35:07;;;;;;;6.07;5.47;;;20.90;99.90;;;;;;5023752;28;20021;-84
2023/08/12 08:37:33;;;;;;;6.93;5.50;;;21.00;99.90;;;;;;5021995;28;20026;-84
2023/08/12 08:39:58;;;;;;;6.07;4.97;;;21.10;99.90;;;;;;5024114;28;20080;-84
2023/08/12 08:42:25;;;;;;;6.57;5.97;;;21.10;99.90;;;;;;5022613;28;20046;-85
2023/08/12 08:44:56;;;;;;;7.30;5.13;;;21.20;99.90;;;;;;5023304;28;20052;-84
2023/08/12 08:47:30;;;;;;;5.38;4.88;;;21.20;99.90;;;;;;5021672;28;20095;-85
2023/08/12 08:49:57;;;;;;;5.78;4.93;;;21.30;99.90;;;;;;5013552;28;20022;-84
2023/08/12 08:52:23;;;;;;;5.53;5.03;;;21.30;99.90;;;;;;5022571;28;20595;-83
2023/08/12 08:54:50;;;;;;;5.07;4.45;;;21.30;99.90;;;;;;5020030;28;20558;-85
2023/08/12 08:57:19;;;;;;;5.30;4.80;;;21.30;99.90;;;;;;5022589;28;20056;-84
2023/08/12 08:59:44;;;;;;;5.50;5.00;;;21.40;99.90;;;;;;5013739;28;20080;-85
2023/08/12 09:02:19;;;;;;;4.70;4.10;;;21.30;99.90;;;;;;5041104;28;20022;-85
2023/08/12 09:04:46;;;;;;;6.05;4.78;;;21.40;99.90;;;;;;5046673;28;20040;-85
2023/08/12 09:07:13;;;;;;;5.03;4.63;;;21.40;99.90;;;;;;5030510;28;20038;-85
2023/08/12 09:09:45;;;;;;;4.68;4.20;;;21.40;99.90;;;;;;5024102;28;20108;-85
2023/08/12 09:12:13;;;;;;;4.80;4.40;;;21.40;99.90;;;;;;5021403;28;20396;-84
2023/08/12 09:14:39;;;;;;;4.93;4.43;;;21.50;99.90;;;;;;5030693;28;20495;-84
2023/08/12 09:17:05;;;;;;;4.32;3.92;;;21.50;99.90;;;;;;5022117;28;20076;-84
2023/08/12 09:19:31;;;;;;;3.22;3.03;;;21.50;99.90;;;;;;5024560;28;20037;-83
2023/08/12 09:21:57;;;;;;;4.40;3.75;;;21.50;99.90;;;;;;5025175;28;20029;-84
2023/08/12 09:24:27;;;;;;;4.45;4.05;;;21.60;99.90;;;;;;5024342;28;20021;-84
2023/08/12 09:26:53;;;;;;;3.97;3.58;;;21.60;99.90;;;;;;5014971;28;20021;-84
2023/08/12 09:29:24;;;;;;;5.78;3.83;;;21.60;99.90;;;;;;5024329;28;20030;-85
2023/08/12 09:31:50;;;;;;;4.35;3.92;;;21.60;99.90;;;;;;5022828;28;20029;-86
2023/08/12 09:34:18;;;;;;;4.20;3.75;;;21.70;99.90;;;;;;5026907;28;20105;-86
2023/08/12 09:36:47;;;;;;;3.83;3.45;;;21.70;99.90;;;;;;5025167;28;20549;-85
2023/08/12 09:39:13;;;;;;;5.18;4.68;;;21.70;99.90;;;;;;5025485;28;20076;-85
2023/08/12 09:41:39;;;;;;;4.72;4.32;;;21.70;99.90;;;;;;5025064;28;20065;-84
2023/08/12 09:44:06;;;;;;;3.92;3.60;;;21.80;99.90;;;;;;5025721;28;20017;-85
2023/08/12 09:46:35;;;;;;;3.45;3.15;;;21.80;99.90;;;;;;5028443;28;20026;-85
2023/08/12 09:49:04;;;;;;;3.58;3.28;;;21.80;99.90;;;;;;5029433;28;20492;-86
2023/08/12 09:51:37;;;;;;;3.58;3.20;;;21.80;99.90;;;;;;5027028;28;20397;-84
2023/08/12 09:54:03;;;;;;;3.67;3.38;;;21.80;99.90;;;;;;5021014;28;20029;-85
2023/08/12 09:56:33;;;;;;;3.83;3.38;;;21.80;99.90;;;;;;5022715;28;20030;-86
2023/08/12 09:59:00;;;;;;;4.35;3.95;;;21.80;99.90;;;;;;5021117;28;20033;-85
2023/08/12 10:01:26;;;;;;;3.83;3.33;;;21.70;99.90;;;;;;5024737;28;20041;-84
2023/08/12 10:03:54;;;;;;;3.67;3.38;;;21.70;99.90;;;;;;5017898;28;20026;-83
2023/08/12 10:06:20;;;;;;;4.57;3.90;;;21.60;99.90;;;;;;5026597;28;20097;-85
2023/08/12 10:08:46;;;;;;;3.83;3.53;;;21.60;99.90;;;;;;5019931;28;20080;-84
2023/08/12 10:11:13;;;;;;;3.92;3.20;;;21.60;99.90;;;;;;5024388;28;20045;-85
2023/08/12 10:13:43;;;;;;;3.25;3.05;;;21.50;99.90;;;;;;5023755;28;20029;-85
2023/08/12 10:16:09;;;;;;;5.28;3.47;;;21.50;99.90;;;;;;5014326;28;20092;-85
2023/08/12 10:18:36;;;;;;;3.88;3.47;;;21.50;99.90;;;;;;5025668;28;20059;-84
2023/08/12 10:21:03;;;;;;;3.08;2.78;;;21.50;99.90;;;;;;5018947;28;20022;-84
2023/08/12 10:23:30;;;;;;;3.70;3.40;;;21.50;99.90;;;;;;5026503;28;20021;-83
2023/08/12 10:25:57;;;;;;;3.72;3.42;;;21.50;99.90;;;;;;5018221;28;20018;-84
2023/08/12 10:28:23;;;;;;;3.50;3.30;;;21.40;99.90;;;;;;5018710;28;20026;-84
2023/08/12 10:30:49;;;;;;;3.85;3.45;;;21.40;99.90;;;;;;5024349;28;20088;-84
2023/08/12 10:33:16;;;;;;;3.58;3.25;;;21.40;99.90;;;;;;5018481;28;20029;-84
2023/08/12 10:35:48;;;;;;;3.25;3.05;;;21.40;99.90;;;;;;5019565;28;20022;-84
2023/08/12 10:38:18;;;;;;;4.00;3.70;;;21.40;99.90;;;;;;5017474;28;20618;-85
2023/08/12 10:40:44;;;;;;;3.80;3.45;;;21.40;99.90;;;;;;5026612;28;20018;-85
2023/08/12 10:43:12;;;;;;;4.20;3.50;;;21.40;99.90;;;;;;5019648;28;20024;-84
2023/08/12 10:45:46;;;;;;;4.18;3.78;;;21.50;99.90;;;;;;5019785;28;20515;-85
2023/08/12 10:48:26;;;;;;;5.70;4.03;;;21.50;99.90;;;;;;5022427;28;20548;-85
2023/08/12 10:50:58;;;;;;;4.07;3.70;;;21.60;99.90;;;;;;5008069;28;20029;-85
2023/08/12 10:53:31;;;;;;;4.10;3.67;;;21.60;99.90;;;;;;5020375;28;20627;-85
2023/08/12 10:55:59;;;;;;;4.10;3.30;;;21.60;99.90;;;;;;5007896;28;20118;-84
2023/08/12 10:58:35;;;;;;;5.03;3.85;;;21.60;99.90;;;;;;5021881;28;20065;-85
2023/08/12 11:01:01;;;;;;;3.85;3.42;;;21.60;99.90;;;;;;5023401;28;20037;-85
2023/08/12 11:03:32;;;;;;;3.58;3.28;;;21.60;99.90;;;;;;5020517;28;20025;-85
2023/08/12 11:05:59;;;;;;;6.00;3.92;;;21.60;99.90;;;;;;5024905;28;20027;-85
2023/08/12 11:08:27;;;;;;;5.22;4.45;;;21.70;99.90;;;;;;5015713;28;20021;-85
2023/08/12 11:10:57;;;;;;;4.65;3.90;;;21.70;99.90;;;;;;5021785;28;20025;-84
2023/08/12 11:13:22;;;;;;;4.38;3.97;;;21.80;99.90;;;;;;5023234;28;20026;-85
2023/08/12 11:15:51;;;;;;;5.78;5.15;;;21.90;99.90;;;;;;5021381;28;20388;-85
2023/08/12 11:18:18;;;;;;;5.60;4.25;;;21.90;99.90;;;;;;5027340;28;20025;-85
2023/08/12 11:20:48;;;;;;;5.97;4.15;;;21.90;99.90;;;;;;5022270;28;20032;-84
2023/08/12 11:23:13;;;;;;;4.93;3.85;;;21.90;99.90;;;;;;5029186;28;20081;-85
2023/08/12 11:25:40;;;;;;;6.18;3.55;;;21.90;99.90;;;;;;5024785;28;20045;-84
2023/08/12 11:28:07;;;;;;;6.80;3.38;;;22.00;99.90;;;;;;5026422;28;20089;-85
2023/08/12 11:30:33;;;;;;;5.13;3.30;;;22.00;99.90;;;;;;5032454;28;20030;-86
2023/08/12 11:33:01;;;;;;;3.85;3.50;;;22.00;99.90;;;;;;5026515;28;20030;-84
2023/08/12 11:35:26;;;;;;;4.03;3.63;;;22.10;99.90;;;;;;5036851;28;20025;-84
2023/08/12 11:37:56;;;;;;;3.50;3.10;;;22.10;99.90;;;;;;5029585;28;20077;-85
2023/08/12 11:40:23;;;;;;;4.28;3.65;;;22.20;99.90;;;;;;5039951;28;20022;-85
2023/08/12 11:42:51;;;;;;;4.65;4.13;;;22.10;99.90;;;;;;5035110;28;20036;-85
2023/08/12 11:45:19;;;;;;;4.78;3.53;;;22.10;99.90;;;;;;5031963;28;20174;-84
2023/08/12 11:47:47;;;;;;;4.45;4.00;;;22.10;99.90;;;;;;5036936;28;20041;-85
2023/08/12 11:50:13;;;;;;;4.72;3.83;;;22.00;99.90;;;;;;5033581;28;20022;-85
2023/08/12 11:52:42;;;;;;;3.55;3.20;;;22.00;99.90;;;;;;5046444;28;20056;-85
2023/08/12 11:55:08;;;;;;;3.92;3.53;;;21.80;99.90;;;;;;5037794;28;20030;-86
2023/08/12 11:57:34;;;;;;;3.42;3.15;;;21.80;99.90;;;;;;5049189;28;20044;-85
2023/08/12 12:00:05;;;;;;;5.60;4.35;;;21.70;99.90;;;;;;5041835;28;20026;-85
2023/08/12 12:02:30;;;;;;;4.40;3.83;;;21.70;99.90;;;;;;5040970;28;20034;-85
2023/08/12 12:04:56;;;;;;;5.00;4.20;;;21.60;99.90;;;;;;5042284;28;20060;-83
2023/08/12 12:07:25;;;;;;;4.40;3.83;;;21.60;99.90;;;;;;5023394;28;20423;-85
2023/08/12 12:09:52;;;;;;;5.97;4.95;;;21.50;99.90;;;;;;5017097;28;20022;-85
2023/08/12 12:12:18;;;;;;;4.80;4.30;;;21.50;99.90;;;;;;5020504;28;20014;-84
2023/08/12 12:14:46;;;;;;;4.90;3.90;;;21.50;99.90;;;;;;5029265;28;20034;-85
2023/08/12 12:17:13;;;;;;;5.13;4.32;;;21.40;99.90;;;;;;5023000;28;20044;-83
2023/08/12 12:19:41;;;;;;;5.00;4.32;;;21.20;99.90;;;;;;5023651;28;20054;-85
2023/08/12 12:22:06;;;;;;;4.15;3.75;;;21.20;99.90;;;;;;5025762;28;20022;-85
2023/08/12 12:24:46;;;;;;;6.13;4.75;;;21.20;99.90;;;;;;5024491;28;20022;-84
2023/08/12 12:27:12;;;;;;;4.55;4.00;;;21.10;99.90;;;;;;5027034;28;20440;-84
2023/08/12 12:29:37;;;;;;;3.92;3.63;;;21.10;99.90;;;;;;5018896;28;20060;-83
2023/08/12 12:32:03;;;;;;;5.68;4.53;;;21.00;99.90;;;;;;5024263;28;20057;-84
2023/08/12 12:34:28;;;;;;;3.97;3.58;;;21.00;99.90;;;;;;5022898;28;20036;-84
2023/08/12 12:36:54;;;;;;;4.00;3.70;;;21.00;99.90;;;;;;5020403;28;20018;-82
2023/08/12 12:39:21;;;;;;;5.40;4.20;;;21.00;99.90;;;;;;5023663;28;20025;-84
2023/08/12 12:41:46;;;;;;;4.40;4.00;;;21.00;99.90;;;;;;5024296;28;20428;-84
2023/08/12 12:44:12;;;;;;;5.78;4.28;;;21.00;99.90;;;;;;5023259;28;20048;-83